Time;durP1;ratioP1;P1;durP2;ratioP2;P2;SDS_P1;SDS_P2;PMS_P1;PMS_P2;Temp;Humidity;BMP_temperature;BMP_pressure;BME280_temperature;BME280_humidity;BME280_pressure;Samples;Min_cycle;Max_cycle;Signal;HPM_P1;HPM_P2
2023/12/17 00:00:42;;;;;;;25.90;15.20;;;;;;;2.11;88.16;100560.86;107659;1251;67615;-41
2023/12/17 00:03:10;;;;;;;25.70;14.40;;;;;;;2.16;87.78;100563.41;107656;1253;72976;-40
2023/12/17 00:05:47;;;;;;;27.80;15.70;;;;;;;2.19;87.78;100558.09;107647;1251;60177;-40
2023/12/17 00:08:19;;;;;;;26.30;15.10;;;;;;;2.16;87.85;100559.29;107689;1251;60280;-40
2023/12/17 00:10:52;;;;;;;24.00;14.50;;;;;;;2.13;87.89;100562.02;107695;1251;73152;-40
2023/12/17 00:13:19;;;;;;;23.10;14.30;;;;;;;2.16;87.73;100556.45;107639;1251;67659;-41
2023/12/17 00:15:47;;;;;;;24.90;14.50;;;;;;;2.20;87.57;100547.93;107666;1254;72743;-40
2023/12/17 00:18:14;;;;;;;27.50;16.00;;;;;;;2.18;87.70;100540.06;107631;1257;60456;-41
2023/12/17 00:20:42;;;;;;;25.90;14.70;;;;;;;2.15;87.76;100538.10;107637;1251;59679;-40
2023/12/17 00:23:10;;;;;;;25.10;13.80;;;;;;;2.14;87.81;100539.76;107616;1251;73866;-40
2023/12/17 00:25:38;;;;;;;22.70;13.70;;;;;;;2.15;87.38;100538.64;107685;1251;67672;-40
2023/12/17 00:28:05;;;;;;;27.20;14.90;;;;;;;2.17;87.49;100538.05;107642;1257;72677;-40
2023/12/17 00:30:33;;;;;;;24.80;16.60;;;;;;;2.13;87.82;100532.29;107661;1251;60422;-40
2023/12/17 00:33:02;;;;;;;26.90;15.40;;;;;;;2.10;87.94;100535.61;107568;1254;60281;-40
2023/12/17 00:35:30;;;;;;;25.00;14.60;;;;;;;2.14;87.93;100529.28;107513;1254;73880;-40
2023/12/17 00:37:58;;;;;;;24.90;16.10;;;;;;;2.17;87.66;100529.52;107620;1254;67574;-40
2023/12/17 00:40:25;;;;;;;28.90;17.10;;;;;;;2.17;87.86;100534.14;107566;1254;71852;-40
2023/12/17 00:42:53;;;;;;;25.60;16.10;;;;;;;2.14;87.94;100534.20;107564;1254;60314;-40
2023/12/17 00:45:20;;;;;;;28.60;16.30;;;;;;;2.14;88.08;100522.85;107587;1254;60341;-40
2023/12/17 00:47:48;;;;;;;24.40;15.40;;;;;;;2.19;87.93;100526.27;107494;1252;73795;-40
2023/12/17 00:50:16;;;;;;;30.20;16.50;;;;;;;2.23;87.89;100521.41;107607;1252;66267;-40
2023/12/17 00:52:44;;;;;;;27.60;16.40;;;;;;;2.21;87.73;100513.04;107525;1254;72718;-40
2023/12/17 00:55:11;;;;;;;27.70;16.10;;;;;;;2.17;87.95;100513.76;107451;1259;60454;-40
2023/12/17 00:57:39;;;;;;;26.00;15.50;;;;;;;2.19;88.03;100513.20;107462;1253;60516;-40
2023/12/17 01:00:07;;;;;;;25.00;15.50;;;;;;;2.25;87.62;100511.30;107494;1253;72907;-40
2023/12/17 01:02:35;;;;;;;25.80;15.10;;;;;;;2.27;87.69;100510.33;107517;1253;66627;-41
2023/12/17 01:05:03;;;;;;;26.10;16.30;;;;;;;2.25;87.71;100509.64;107462;1254;72789;-40
2023/12/17 01:07:31;;;;;;;27.00;15.50;;;;;;;2.22;87.90;100500.24;107504;1254;60840;-40
2023/12/17 01:09:58;;;;;;;25.50;14.10;;;;;;;2.24;87.80;100496.16;107482;1254;60494;-40
2023/12/17 01:12:25;;;;;;;22.20;14.10;;;;;;;2.30;87.37;100499.71;107498;1254;73985;-40
2023/12/17 01:14:53;;;;;;;25.60;14.80;;;;;;;2.29;87.39;100502.45;107479;1254;66819;-40
2023/12/17 01:17:21;;;;;;;23.50;15.00;;;;;;;2.23;87.55;100494.88;107443;1256;71427;-40
2023/12/17 01:19:48;;;;;;;25.00;14.80;;;;;;;2.18;87.69;100486.61;107456;1253;60898;-40
2023/12/17 01:22:16;;;;;;;23.40;14.40;;;;;;;2.20;87.67;100482.91;107499;1254;60427;-40
2023/12/17 01:24:43;;;;;;;26.50;14.90;;;;;;;2.23;87.49;100486.44;107476;1253;73848;-40
2023/12/17 01:27:11;;;;;;;25.30;14.40;;;;;;;2.18;87.45;100479.08;107460;1253;67145;-40
2023/12/17 01:29:38;;;;;;;26.20;15.60;;;;;;;2.13;87.87;100481.93;107455;1253;73127;-40
2023/12/17 01:32:06;;;;;;;23.50;14.60;;;;;;;2.12;87.96;100479.01;107482;1254;60466;-40
2023/12/17 01:34:33;;;;;;;23.40;14.20;;;;;;;2.15;87.81;100482.19;107468;1254;60379;-40
2023/12/17 01:37:01;;;;;;;25.50;15.10;;;;;;;2.15;87.97;100483.10;107544;1254;73832;-40
2023/12/17 01:39:29;;;;;;;28.90;15.50;;;;;;;2.11;88.34;100485.64;107457;1253;66630;-41
2023/12/17 01:41:56;;;;;;;24.90;14.60;;;;;;;2.09;88.21;100480.77;107414;1257;71999;-41
2023/12/17 01:44:24;;;;;;;24.50;14.30;;;;;;;2.14;88.07;100482.80;107475;1259;60881;-40
2023/12/17 01:46:51;;;;;;;25.80;14.50;;;;;;;2.17;87.83;100483.27;107493;1253;60376;-40
2023/12/17 01:49:19;;;;;;;22.20;13.80;;;;;;;2.15;87.78;100483.10;107523;1259;71656;-40
2023/12/17 01:51:47;;;;;;;27.00;14.60;;;;;;;2.11;87.86;100475.96;107512;1253;67952;-40
2023/12/17 01:54:14;;;;;;;22.90;14.50;;;;;;;2.09;87.76;100470.07;107463;1253;72661;-40
2023/12/17 01:56:42;;;;;;;21.40;13.90;;;;;;;2.12;87.83;100466.70;107420;1256;60540;-40
2023/12/17 01:59:10;;;;;;;20.00;13.90;;;;;;;2.16;87.78;100456.79;107459;1253;60371;-40
2023/12/17 02:01:37;;;;;;;23.40;14.80;;;;;;;2.15;87.97;100455.82;107493;1259;72623;-40
2023/12/17 02:04:06;;;;;;;26.30;15.30;;;;;;;2.12;88.27;100453.86;107494;1253;66583;-40
2023/12/17 02:06:34;;;;;;;25.40;14.20;;;;;;;2.10;88.31;100448.30;107489;1253;72702;-40
2023/12/17 02:09:01;;;;;;;22.30;14.30;;;;;;;2.15;88.23;100453.42;107477;1259;60854;-40
2023/12/17 02:11:29;;;;;;;25.00;15.10;;;;;;;2.21;87.95;100448.08;107513;1254;60511;-40
2023/12/17 02:13:56;;;;;;;21.20;14.70;;;;;;;2.18;87.99;100449.86;107535;1254;72703;-40
2023/12/17 02:16:24;;;;;;;23.00;14.90;;;;;;;2.13;88.12;100443.95;107529;1259;67601;-40
2023/12/17 02:18:51;;;;;;;25.30;14.50;;;;;;;2.10;87.77;100443.81;107502;1256;71454;-40
2023/12/17 02:21:19;;;;;;;22.40;14.20;;;;;;;2.12;87.66;100438.98;107462;1254;60530;-40
2023/12/17 02:23:47;;;;;;;23.00;14.00;;;;;;;2.14;87.51;100434.52;107507;1253;60802;-40
2023/12/17 02:26:14;;;;;;;26.30;16.00;;;;;;;2.12;87.53;100427.16;107514;1254;73115;-40
2023/12/17 02:28:42;;;;;;;26.80;15.20;;;;;;;2.08;87.77;100421.68;107552;1254;67241;-40
2023/12/17 02:31:09;;;;;;;24.20;14.60;;;;;;;2.03;87.84;100416.34;107481;1259;72683;-40
2023/12/17 02:33:37;;;;;;;28.20;14.80;;;;;;;2.05;87.84;100409.27;107474;1259;60174;-40
2023/12/17 02:36:06;;;;;;;22.90;14.80;;;;;;;2.08;87.72;100408.25;107528;1254;59735;-40
2023/12/17 02:38:33;;;;;;;25.30;15.20;;;;;;;2.07;87.76;100402.91;107532;1254;73874;-40
2023/12/17 02:41:01;;;;;;;27.10;14.50;;;;;;;2.03;88.18;100401.42;107501;1254;67927;-40
2023/12/17 02:43:29;;;;;;;24.80;15.50;;;;;;;2.00;88.24;100397.81;106004;1253;1003708;-40
2023/12/17 02:45:56;;;;;;;24.30;14.80;;;;;;;2.04;88.23;100395.65;107495;1254;60969;-40
2023/12/17 02:48:23;;;;;;;25.80;15.40;;;;;;;2.09;88.06;100394.02;107486;1254;60491;-40
2023/12/17 02:50:51;;;;;;;23.20;15.40;;;;;;;2.09;88.32;100384.02;107493;1254;73877;-40
2023/12/17 02:53:19;;;;;;;27.20;16.30;;;;;;;2.06;88.42;100385.54;107675;1253;67586;-40
2023/12/17 02:55:46;;;;;;;26.60;16.70;;;;;;;2.04;88.60;100388.05;107562;1254;71442;-40
2023/12/17 02:58:15;;;;;;;24.20;13.90;;;;;;;2.09;88.49;100389.89;107555;1254;60431;-40
2023/12/17 03:00:43;;;;;;;23.70;14.20;;;;;;;2.14;88.38;100383.38;107627;1254;60447;-40
2023/12/17 03:03:10;;;;;;;23.80;15.20;;;;;;;2.13;88.57;100380.13;107594;1254;73842;-40
2023/12/17 03:05:38;;;;;;;27.50;14.60;;;;;;;2.10;88.86;100381.59;107618;1254;66303;-40
2023/12/17 03:08:05;;;;;;;22.00;13.50;;;;;;;2.12;88.71;100379.71;107561;1253;72689;-40
2023/12/17 03:10:33;;;;;;;22.40;13.80;;;;;;;2.17;88.59;100371.27;107569;1254;61295;-40
2023/12/17 03:13:00;;;;;;;24.00;14.10;;;;;;;2.19;88.47;100368.95;107592;1253;59418;-40
2023/12/17 03:15:28;;;;;;;24.10;14.90;;;;;;;2.16;88.66;100360.74;107577;1254;72648;-40
2023/12/17 03:17:55;;;;;;;24.20;15.30;;;;;;;2.12;88.78;100357.67;107570;1254;67594;-40
2023/12/17 03:20:23;;;;;;;22.40;13.50;;;;;;;2.14;88.86;100360.17;107580;1253;72700;-40
2023/12/17 03:22:51;;;;;;;21.80;13.60;;;;;;;2.19;88.76;100357.35;107596;1254;60440;-40
2023/12/17 03:25:18;;;;;;;24.20;14.30;;;;;;;2.18;88.70;100352.95;107597;1254;60115;-40
2023/12/17 03:27:47;;;;;;;24.20;14.50;;;;;;;2.16;88.88;100350.27;107592;1254;73905;-40
2023/12/17 03:30:15;;;;;;;21.20;13.50;;;;;;;2.14;88.96;100348.77;107582;1254;67039;-40
2023/12/17 03:32:42;;;;;;;25.40;14.10;;;;;;;2.18;88.81;100348.48;107580;1256;72636;-40
2023/12/17 03:35:10;;;;;;;24.50;14.20;;;;;;;2.21;88.56;100338.93;107550;1253;61222;-40
2023/12/17 03:37:38;;;;;;;21.80;13.70;;;;;;;2.17;88.85;100338.69;107606;1254;59244;-40
2023/12/17 03:40:07;;;;;;;25.10;13.60;;;;;;;2.12;89.08;100340.17;107656;1253;73861;-40
2023/12/17 03:42:34;;;;;;;19.70;13.70;;;;;;;2.12;88.93;100336.59;107614;1253;67883;-40
2023/12/17 03:45:02;;;;;;;22.10;13.50;;;;;;;2.15;88.87;100331.86;107569;1254;72642;-40
2023/12/17 03:47:31;;;;;;;26.80;14.60;;;;;;;2.13;89.03;100329.10;107593;1254;60462;-40
2023/12/17 03:49:58;;;;;;;26.40;15.10;;;;;;;2.08;89.29;100321.54;107553;1254;59523;-40
2023/12/17 03:52:26;;;;;;;22.90;14.00;;;;;;;2.07;89.35;100318.34;107542;1253;71905;-40
2023/12/17 03:54:53;;;;;;;25.30;14.90;;;;;;;2.09;89.18;100313.70;106832;1254;1002613;-40
2023/12/17 03:57:21;;;;;;;20.90;14.40;;;;;;;2.10;89.24;100308.20;107557;1254;72654;-40
2023/12/17 03:59:49;;;;;;;20.00;13.80;;;;;;;2.04;89.50;100304.39;107578;1254;60412;-40
2023/12/17 04:02:16;;;;;;;22.40;13.80;;;;;;;2.02;89.70;100304.69;107582;1253;60287;-40
2023/12/17 04:04:44;;;;;;;22.10;13.50;;;;;;;2.05;89.61;100297.87;107598;1252;71588;-40
2023/12/17 04:07:11;;;;;;;23.10;14.50;;;;;;;2.10;89.51;100291.83;107586;1256;67560;-40
2023/12/17 04:09:39;;;;;;;23.40;14.70;;;;;;;2.11;89.50;100288.52;107614;1253;72723;-40
2023/12/17 04:12:06;;;;;;;24.10;13.60;;;;;;;2.08;89.83;100287.94;107605;1252;60413;-40
2023/12/17 04:14:34;;;;;;;25.30;14.70;;;;;;;2.08;89.72;100287.25;107582;1253;59266;-40
2023/12/17 04:17:01;;;;;;;21.90;14.00;;;;;;;2.13;89.56;100284.27;107603;1253;72580;-41
2023/12/17 04:19:29;;;;;;;24.20;14.10;;;;;;;2.15;89.45;100280.61;107594;1254;68007;-41
2023/12/17 04:21:57;;;;;;;21.20;14.80;;;;;;;2.12;89.58;100277.05;107593;1254;72629;-41
2023/12/17 04:24:24;;;;;;;23.00;14.70;;;;;;;2.10;89.98;100272.57;107578;1254;60424;-40
2023/12/17 04:26:52;;;;;;;22.90;14.20;;;;;;;2.09;90.02;100270.11;107582;1253;60434;-40
2023/12/17 04:29:20;;;;;;;22.20;14.40;;;;;;;2.13;89.78;100267.52;107559;1256;73772;-41
2023/12/17 04:31:47;;;;;;;22.30;14.20;;;;;;;2.15;89.94;100267.02;107574;1253;66582;-41
2023/12/17 04:34:15;;;;;;;23.00;14.00;;;;;;;2.12;90.06;100257.75;107571;1254;71394;-41
2023/12/17 04:36:43;;;;;;;26.80;15.20;;;;;;;2.10;90.09;100253.75;107574;1254;60925;-41
2023/12/17 04:39:10;;;;;;;24.20;14.00;;;;;;;2.14;90.23;100244.67;107575;1253;60128;-41
2023/12/17 04:41:38;;;;;;;25.80;14.00;;;;;;;2.18;90.07;100247.61;107571;1253;74751;-41
2023/12/17 04:44:06;;;;;;;23.60;15.10;;;;;;;2.18;90.19;100243.18;107574;1253;67740;-40
2023/12/17 04:46:34;;;;;;;25.30;14.60;;;;;;;2.15;90.30;100235.66;107553;1253;72445;-41
2023/12/17 04:49:01;;;;;;;21.50;13.40;;;;;;;2.17;90.10;100228.74;107574;1253;60402;-41
2023/12/17 04:51:29;;;;;;;22.80;13.80;;;;;;;2.20;89.94;100223.73;107602;1251;60046;-41
2023/12/17 04:53:56;;;;;;;22.80;14.00;;;;;;;2.24;89.86;100223.00;107614;1251;72937;-41
2023/12/17 04:56:24;;;;;;;22.90;15.20;;;;;;;2.22;89.91;100218.86;107618;1256;66744;-40
2023/12/17 04:58:51;;;;;;;24.50;15.30;;;;;;;2.17;90.02;100221.75;107606;1251;71416;-41
2023/12/17 05:01:19;;;;;;;22.90;14.60;;;;;;;2.17;90.05;100225.48;107608;1254;60498;-41
2023/12/17 05:03:47;;;;;;;26.90;15.70;;;;;;;2.19;89.67;100222.46;107540;1251;118580;-41
2023/12/17 05:08:58;;;;;;;24.70;16.00;;;;;;;2.19;90.06;100220.22;104131;1292;600414;-41
2023/12/17 05:11:25;;;;;;;24.50;15.70;;;;;;;2.14;90.20;100219.52;105124;1267;1015633;-41
2023/12/17 05:13:53;;;;;;;25.90;16.10;;;;;;;2.17;89.91;100220.66;106599;1269;59347;-41
2023/12/17 05:16:20;;;;;;;26.70;15.50;;;;;;;2.22;89.89;100218.95;106587;1266;70963;-41
2023/12/17 05:18:48;;;;;;;30.20;16.20;;;;;;;2.22;90.08;100213.61;106590;1267;66788;-41
2023/12/17 05:21:16;;;;;;;35.40;16.50;;;;;;;2.19;90.21;100217.91;106586;1267;71092;-41
2023/12/17 05:23:43;;;;;;;29.50;15.60;;;;;;;2.22;90.26;100210.02;106519;1266;132891;-41
2023/12/17 05:26:12;;;;;;;25.70;15.30;;;;;;;2.30;90.15;100210.43;106663;1263;59024;-41
2023/12/17 05:28:41;;;;;;;26.50;16.40;;;;;;;2.32;89.98;100213.73;106645;1264;72245;-40
2023/12/17 05:31:09;;;;;;;29.70;16.50;;;;;;;2.29;90.00;100213.80;106658;1264;66429;-41
2023/12/17 05:33:37;;;;;;;26.60;15.80;;;;;;;2.29;90.05;100215.09;106594;1264;72694;-41
2023/12/17 05:36:05;;;;;;;26.60;15.00;;;;;;;2.33;90.00;100213.34;107154;1257;60867;-40
2023/12/17 05:38:33;;;;;;;32.00;16.10;;;;;;;2.36;89.65;100214.92;107300;1257;59889;-41
2023/12/17 05:41:00;;;;;;;28.80;15.90;;;;;;;2.35;89.63;100212.55;107207;1257;73077;-41
2023/12/17 05:43:28;;;;;;;28.70;16.10;;;;;;;2.32;89.72;100216.40;107255;1258;67914;-41
2023/12/17 05:45:55;;;;;;;27.40;14.60;;;;;;;2.33;89.63;100217.08;107237;1257;72797;-41
2023/12/17 05:48:25;;;;;;;;;;;;;;;2.34;89.54;100220.98;107230;1257;60965;-41
2023/12/17 05:50:53;;;;;;;28.00;15.80;;;;;;;2.36;89.66;100220.77;107261;1257;59828;-41
2023/12/17 05:53:21;;;;;;;26.40;15.70;;;;;;;2.29;89.99;100222.64;107205;1257;71800;-41
2023/12/17 05:56:00;;;;;;;25.10;16.00;;;;;;;2.23;90.38;100224.52;107236;1256;66475;-41
2023/12/17 05:58:27;;;;;;;26.30;15.10;;;;;;;2.25;90.36;100222.41;107157;1257;71240;-41
2023/12/17 06:00:56;;;;;;;25.40;15.40;;;;;;;2.27;90.66;100216.52;107226;1257;59662;-41
2023/12/17 06:03:24;;;;;;;20.00;12.60;;;;;;;2.23;90.65;100214.67;107192;1257;59993;-41
2023/12/17 06:05:52;;;;;;;29.30;16.10;;;;;;;2.16;91.07;100212.65;107097;1257;73090;-41
2023/12/17 06:08:19;;;;;;;27.80;16.00;;;;;;;2.16;91.17;100204.10;107082;1257;66277;-41
2023/12/17 06:10:47;;;;;;;23.30;15.20;;;;;;;2.18;91.41;100205.35;107122;1257;71464;-41
2023/12/17 06:13:14;;;;;;;25.70;15.10;;;;;;;2.19;91.37;100207.52;107070;1261;59500;-41
2023/12/17 06:15:42;;;;;;;27.40;15.70;;;;;;;2.14;91.72;100203.58;107099;1257;59672;-41
2023/12/17 06:18:09;;;;;;;25.50;15.70;;;;;;;2.11;92.17;100206.88;107074;1262;71847;-41
2023/12/17 06:20:37;;;;;;;27.50;15.70;;;;;;;2.11;92.30;100205.53;106388;1257;1003201;-40
2023/12/17 06:23:04;;;;;;;23.70;15.30;;;;;;;2.17;92.22;100200.61;107207;1257;72359;-41
2023/12/17 06:25:32;;;;;;;28.10;15.60;;;;;;;2.16;92.17;100193.88;107124;1257;59735;-40
2023/12/17 06:27:59;;;;;;;31.20;16.00;;;;;;;2.14;92.35;100193.52;107106;1257;59534;-40
2023/12/17 06:30:27;;;;;;;25.10;15.10;;;;;;;2.15;92.42;100194.85;107196;1257;72121;-40
2023/12/17 06:32:54;;;;;;;23.10;13.90;;;;;;;2.22;92.24;100200.98;107219;1257;67917;-40
2023/12/17 06:35:22;;;;;;;23.70;15.20;;;;;;;2.27;92.23;100197.09;107209;1257;72787;-40
2023/12/17 06:37:50;;;;;;;26.30;15.80;;;;;;;2.26;92.19;100193.89;107082;1257;61036;-40
2023/12/17 06:40:17;;;;;;;25.10;14.80;;;;;;;2.23;92.23;100187.52;107082;1257;59975;-41
2023/12/17 06:42:45;;;;;;;25.20;14.60;;;;;;;2.23;91.99;100183.01;107214;1257;73032;-40
2023/12/17 06:45:13;;;;;;;24.40;13.60;;;;;;;2.19;91.92;100170.09;107204;1257;66416;-40
2023/12/17 06:47:40;;;;;;;21.80;13.80;;;;;;;2.28;91.90;100183.27;107214;1257;71704;-40
2023/12/17 06:50:10;;;;;;;23.30;14.00;;;;;;;2.26;92.25;100186.83;107166;1257;59562;-41
2023/12/17 06:52:38;;;;;;;24.90;14.10;;;;;;;2.25;92.36;100192.45;107243;1257;59504;-41
2023/12/17 06:55:06;;;;;;;23.10;12.90;;;;;;;2.33;92.33;100188.67;107214;1256;72557;-40
2023/12/17 06:57:34;;;;;;;18.50;12.60;;;;;;;2.40;92.06;100185.86;107237;1257;66709;-40
2023/12/17 07:00:02;;;;;;;21.20;12.90;;;;;;;2.40;92.22;100180.03;107207;1257;72680;-40
2023/12/17 07:02:32;;;;;;;19.90;12.60;;;;;;;2.39;92.46;100177.84;107200;1257;60849;-40
2023/12/17 07:04:59;;;;;;;19.90;11.90;;;;;;;2.45;92.48;100172.59;107238;1257;59999;-41
2023/12/17 07:07:27;;;;;;;17.50;10.90;;;;;;;2.52;92.19;100174.52;107243;1257;73030;-40
2023/12/17 07:09:54;;;;;;;18.70;11.10;;;;;;;2.53;92.50;100178.80;107216;1262;67592;-41
2023/12/17 07:12:22;;;;;;;17.70;10.90;;;;;;;2.52;92.68;100181.81;107213;1257;70875;-41
2023/12/17 07:14:49;;;;;;;16.50;10.30;;;;;;;2.55;92.59;100186.81;107219;1261;60879;-40
2023/12/17 07:17:17;;;;;;;16.80;10.40;;;;;;;2.61;92.43;100183.84;106461;1257;1002969;-40
2023/12/17 07:19:44;;;;;;;16.90;10.70;;;;;;;2.62;92.53;100181.15;107199;1260;73049;-40
2023/12/17 07:22:12;;;;;;;17.80;10.50;;;;;;;2.60;92.49;100176.05;107237;1257;67904;-40
2023/12/17 07:24:39;;;;;;;14.50;9.40;;;;;;;2.63;92.22;100175.67;107113;1257;72686;-40
2023/12/17 07:27:07;;;;;;;14.20;9.30;;;;;;;2.69;91.96;100176.79;107103;1258;60910;-40
2023/12/17 07:29:34;;;;;;;16.20;9.90;;;;;;;2.72;91.73;100180.02;107140;1257;59339;-40
2023/12/17 07:32:02;;;;;;;17.40;10.00;;;;;;;2.69;91.96;100176.41;107105;1257;71328;-40
2023/12/17 07:34:30;;;;;;;13.40;9.20;;;;;;;2.67;91.98;100171.99;107245;1257;66802;-40
2023/12/17 07:36:57;;;;;;;13.40;8.60;;;;;;;2.73;91.93;100172.39;107175;1258;72677;-40
2023/12/17 07:39:25;;;;;;;13.20;9.50;;;;;;;2.77;91.55;100163.02;107184;1262;60040;-40
2023/12/17 07:41:53;;;;;;;15.00;9.20;;;;;;;2.76;91.64;100170.33;107238;1261;60006;-40
2023/12/17 07:44:21;;;;;;;12.80;8.80;;;;;;;2.75;91.76;100175.27;107221;1257;72092;-40
2023/12/17 07:46:49;;;;;;;15.90;9.20;;;;;;;2.81;91.51;100182.95;107192;1257;66916;-42
2023/12/17 07:49:16;;;;;;;13.90;9.00;;;;;;;2.84;91.37;100184.58;107159;1262;72695;-40
2023/12/17 07:51:44;;;;;;;14.70;9.30;;;;;;;2.82;91.58;100182.51;107174;1259;59743;-39
2023/12/17 07:54:12;;;;;;;15.50;9.20;;;;;;;2.82;91.49;100176.55;107125;1257;60266;-40
2023/12/17 07:56:39;;;;;;;15.70;9.60;;;;;;;2.87;91.23;100180.24;107199;1257;73051;-39
2023/12/17 07:59:07;;;;;;;14.10;9.60;;;;;;;2.90;90.93;100183.55;107179;1257;67545;-40
2023/12/17 08:01:34;;;;;;;14.50;9.40;;;;;;;2.86;91.01;100184.91;107172;1257;71806;-40
2023/12/17 08:04:02;;;;;;;15.30;9.50;;;;;;;2.88;91.13;100178.67;107171;1257;59876;-40
2023/12/17 08:06:30;;;;;;;16.30;10.40;;;;;;;2.93;90.90;100180.23;107193;1257;60137;-40
2023/12/17 08:09:01;;;;;;;14.60;10.50;;;;;;;2.92;91.24;100182.91;107155;1257;73058;-40
2023/12/17 08:11:28;;;;;;;15.10;10.50;;;;;;;2.90;91.42;100187.82;107172;1257;67563;-40
2023/12/17 08:13:57;;;;;;;15.70;10.30;;;;;;;2.93;91.53;100186.70;107130;1257;71720;-40
2023/12/17 08:16:25;;;;;;;16.10;11.40;;;;;;;2.94;91.23;100188.88;107130;1258;59299;-39
2023/12/17 08:18:53;;;;;;;18.60;10.60;;;;;;;2.88;91.29;100185.36;107247;1257;60014;-40
2023/12/17 08:21:21;;;;;;;18.70;11.00;;;;;;;2.84;91.80;100181.95;107071;1260;73026;-40
2023/12/17 08:23:49;;;;;;;15.80;10.90;;;;;;;2.87;91.65;100181.36;107154;1260;67605;-39
2023/12/17 08:26:16;;;;;;;17.70;11.40;;;;;;;2.87;91.65;100179.44;107170;1260;72709;-40
2023/12/17 08:28:44;;;;;;;17.50;11.20;;;;;;;2.83;91.94;100176.67;107163;1260;59990;-40
2023/12/17 08:31:12;;;;;;;15.70;9.90;;;;;;;2.71;92.20;100161.08;107067;1260;60132;-39
2023/12/17 08:33:40;;;;;;;16.50;9.60;;;;;;;2.82;91.96;100174.38;107059;1258;73516;-40
2023/12/17 08:36:08;;;;;;;15.60;10.00;;;;;;;2.84;91.67;100165.41;107161;1258;66592;-40
2023/12/17 08:38:36;;;;;;;14.80;9.70;;;;;;;2.79;91.64;100166.42;107084;1259;73069;-39
2023/12/17 08:41:04;;;;;;;13.00;9.60;;;;;;;2.77;91.71;100161.52;107027;1259;59932;-40
2023/12/17 08:43:32;;;;;;;13.90;9.20;;;;;;;2.81;91.67;100159.17;107101;1259;60043;-40
2023/12/17 08:45:59;;;;;;;16.40;9.90;;;;;;;2.82;91.43;100150.09;107076;1259;73078;-41
2023/12/17 08:48:27;;;;;;;13.60;9.50;;;;;;;2.71;91.64;100137.99;107174;1260;67957;-41
2023/12/17 08:50:54;;;;;;;14.70;9.90;;;;;;;2.70;91.54;100136.61;107045;1260;72710;-41
2023/12/17 08:53:23;;;;;;;13.90;9.00;;;;;;;2.79;91.53;100146.94;107186;1260;59669;-41
2023/12/17 08:55:51;;;;;;;13.80;9.40;;;;;;;2.79;91.53;100143.03;107054;1260;60209;-40
2023/12/17 08:58:18;;;;;;;13.00;9.20;;;;;;;2.74;91.60;100139.08;107168;1258;73321;-41
2023/12/17 09:00:46;;;;;;;14.10;9.10;;;;;;;2.75;91.68;100140.73;107089;1258;66852;-41
2023/12/17 09:03:14;;;;;;;11.20;8.60;;;;;;;2.78;91.37;100138.75;106429;1259;1003792;-41
2023/12/17 09:05:43;;;;;;;14.00;9.50;;;;;;;2.77;91.53;100140.65;107079;1260;60091;-41
2023/12/17 09:08:12;;;;;;;11.90;8.50;;;;;;;2.73;91.67;100137.16;107135;1260;59539;-41
2023/12/17 09:10:40;;;;;;;10.10;6.90;;;;;;;2.76;91.25;100133.01;107161;1260;73034;-40
2023/12/17 09:13:09;;;;;;;11.10;7.60;;;;;;;2.79;90.94;100138.59;107165;1260;67803;-41
2023/12/17 09:15:38;;;;;;;12.00;8.10;;;;;;;2.76;90.80;100139.30;107176;1259;72677;-41
2023/12/17 09:18:06;;;;;;;10.50;7.20;;;;;;;2.73;90.88;100141.08;107078;1260;61053;-41
2023/12/17 09:20:33;;;;;;;9.80;7.00;;;;;;;2.75;90.62;100143.84;107169;1260;59091;-41
2023/12/17 09:23:02;;;;;;;11.70;7.40;;;;;;;2.78;90.65;100143.73;107173;1262;73846;-41
2023/12/17 09:25:30;;;;;;;9.90;6.90;;;;;;;2.76;90.73;100147.99;107082;1260;67658;-41
2023/12/17 09:27:58;;;;;;;10.40;6.70;;;;;;;2.74;91.09;100153.38;107169;1260;72766;-41
2023/12/17 09:30:25;;;;;;;10.30;6.90;;;;;;;2.77;90.89;100154.67;107030;1259;60922;-40
2023/12/17 09:32:54;;;;;;;10.60;7.10;;;;;;;2.81;90.84;100151.23;107172;1260;60397;-40
2023/12/17 09:35:21;;;;;;;9.10;6.60;;;;;;;2.81;91.04;100147.27;107187;1260;72598;-40
2023/12/17 09:37:50;;;;;;;7.80;6.00;;;;;;;2.78;91.28;100141.86;107019;1259;67800;-39
2023/12/17 09:40:17;;;;;;;9.70;7.00;;;;;;;2.81;91.11;100139.04;107036;1260;72648;-40
2023/12/17 09:42:45;;;;;;;10.00;7.10;;;;;;;2.84;90.72;100138.04;107084;1260;60361;-40
2023/12/17 09:45:14;;;;;;;7.80;6.10;;;;;;;2.81;90.84;100139.09;107139;1258;60517;-40
2023/12/17 09:47:43;;;;;;;9.80;6.40;;;;;;;2.78;91.11;100133.94;107140;1259;73969;-39
2023/12/17 09:50:11;;;;;;;7.80;6.10;;;;;;;2.84;90.93;100134.50;107123;1260;67624;-40
2023/12/17 09:52:41;;;;;;;8.00;6.20;;;;;;;2.86;90.63;100122.10;107138;1258;72651;-40
2023/12/17 09:55:13;;;;;;;10.60;6.40;;;;;;;2.84;90.58;100133.48;107087;1259;60476;-39
2023/12/17 09:57:41;;;;;;;7.70;5.70;;;;;;;2.81;90.87;100137.23;107078;1260;59403;-39
2023/12/17 10:00:11;;;;;;;7.20;5.50;;;;;;;2.86;90.59;100140.46;107135;1258;73951;-39
2023/12/17 10:02:41;;;;;;;7.70;5.50;;;;;;;2.88;90.51;100139.11;107113;1260;67527;-40
2023/12/17 10:05:08;;;;;;;8.40;5.90;;;;;;;2.83;90.53;100140.52;107044;1263;72670;-39
2023/12/17 10:07:37;;;;;;;8.00;5.50;;;;;;;2.84;90.64;100136.90;107197;1259;60187;-39
2023/12/17 10:10:07;;;;;;;7.60;5.70;;;;;;;2.88;90.44;100131.55;107054;1260;60329;-39
2023/12/17 10:12:35;;;;;;;7.70;5.80;;;;;;;2.87;90.26;100127.55;107205;1259;73887;-39
2023/12/17 10:15:05;;;;;;;6.80;4.80;;;;;;;2.84;90.42;100124.86;107068;1260;66270;-39
2023/12/17 10:17:33;;;;;;;8.50;5.50;;;;;;;2.86;90.07;100124.66;107094;1260;72689;-39
2023/12/17 10:20:01;;;;;;;7.20;5.10;;;;;;;2.89;89.93;100119.59;107025;1260;60510;-39
2023/12/17 10:22:29;;;;;;;9.60;5.50;;;;;;;2.85;90.03;100116.65;107131;1259;60418;-39
2023/12/17 10:24:57;;;;;;;6.80;4.60;;;;;;;2.80;90.14;100117.46;107196;1260;73937;-39
2023/12/17 10:27:24;;;;;;;6.90;4.90;;;;;;;2.82;89.93;100114.87;107134;1258;67615;-39
2023/12/17 10:29:53;;;;;;;7.50;5.00;;;;;;;2.85;89.75;100113.98;107138;1259;72718;-39
2023/12/17 10:32:22;;;;;;;8.20;5.30;;;;;;;2.83;89.90;100118.66;107081;1260;60555;-39
2023/12/17 10:34:51;;;;;;;;;;;;;;;2.79;90.13;100119.89;107043;1258;59692;-41
2023/12/17 10:37:19;;;;;;;;;;;;;;;2.82;90.03;100120.61;107157;1260;74255;-39
2023/12/17 10:39:48;;;;;;;;;;;;;;;2.87;89.84;100120.73;107158;1259;67752;-40
2023/12/17 10:42:19;;;;;;;;;;;;;;;2.87;89.73;100117.27;107111;1263;71144;-40
2023/12/17 10:44:49;;;;;;;;;;;;;;;2.83;89.85;100111.58;107149;1259;60572;-40
2023/12/17 10:47:19;;;;;;;;;;;;;;;2.84;89.85;100113.23;107167;1259;60582;-40
2023/12/17 10:49:46;;;;;;;;;;;;;;;2.90;89.68;100111.27;107201;1259;73938;-40
2023/12/17 10:52:14;;;;;;;;;;;;;;;2.90;89.80;100112.71;107127;1258;67572;-41
2023/12/17 10:54:42;;;;;;;;;;;;;;;2.86;89.92;100116.54;107152;1258;72752;-40
2023/12/17 10:57:17;;;;;;;;;;;;;;;2.88;89.91;100114.09;107036;1264;60882;-40
2023/12/17 10:59:45;;;;;;;;;;;;;;;2.91;89.76;100113.77;107159;1259;60059;-40
2023/12/17 11:02:13;;;;;;;;;;;;;;;2.92;89.94;100111.13;107140;1259;73860;-40
2023/12/17 11:04:46;;;;;;;;;;;;;;;2.89;89.95;100104.53;107181;1262;66981;-40
2023/12/17 11:07:18;;;;;;;;;;;;;;;2.81;89.78;100095.55;107068;1260;72670;-41
2023/12/17 11:10:01;;;;;;;;;;;;;;;2.95;89.78;100107.72;107197;1259;59801;-40
2023/12/17 11:12:29;;;;;;;;;;;;;;;2.98;89.77;100103.39;107143;1260;59842;-40
2023/12/17 11:14:58;;;;;;;;;;;;;;;2.95;89.73;100111.30;107044;1260;73868;-40
2023/12/17 11:17:27;;;;;;;;;;;;;;;2.93;89.94;100114.86;107040;1260;70193;-40
2023/12/17 11:19:54;;;;;;;;;;;;;;;2.98;89.72;100115.81;107140;1258;72972;-40
2023/12/17 11:22:22;;;;;;;;;;;;;;;3.01;89.61;100117.63;107099;1260;60313;-40